Time;durP1;ratioP1;P1;durP2;ratioP2;P2;SDS_P1;SDS_P2;PMS_P1;PMS_P2;Temp;Humidity;BMP_temperature;BMP_pressure;BME280_temperature;BME280_humidity;BME280_pressure;Samples;Min_cycle;Max_cycle;Signal;HPM_P1;HPM_P2
2022/02/27 00:00:37;;;;;;;25.27;15.40;;;6.30;65.10;;;;;;4991625;28;20030;-67
2022/02/27 00:03:04;;;;;;;25.50;15.75;;;6.30;65.30;;;;;;4974650;28;20022;-67
2022/02/27 00:08:32;;;;;;;24.60;15.63;;;6.30;64.90;;;;;;4991256;28;20034;-65
2022/02/27 00:10:58;;;;;;;24.25;15.38;;;6.30;65.00;;;;;;4974307;28;20042;-66
2022/02/27 00:13:24;;;;;;;23.80;15.60;;;6.40;64.90;;;;;;4974129;28;20045;-66
2022/02/27 00:15:49;;;;;;;27.63;17.77;;;6.40;64.70;;;;;;4974320;28;20113;-66
2022/02/27 00:18:15;;;;;;;26.38;16.45;;;6.40;64.70;;;;;;4992127;28;20458;-67
2022/02/27 00:20:42;;;;;;;26.33;16.95;;;6.40;64.60;;;;;;4991123;28;20039;-67
2022/02/27 00:23:07;;;;;;;27.48;17.02;;;6.30;64.80;;;;;;4992351;28;20035;-67
2022/02/27 00:25:33;;;;;;;29.75;17.25;;;6.20;65.10;;;;;;4991194;28;20022;-65
2022/02/27 00:28:02;;;;;;;26.95;17.13;;;6.20;65.00;;;;;;4991410;28;20602;-66
2022/02/27 00:30:28;;;;;;;29.25;15.98;;;6.20;65.30;;;;;;4990376;28;20035;-67
2022/02/27 00:32:54;;;;;;;28.15;17.48;;;6.20;65.10;;;;;;4948946;28;1234867;-67
2022/02/27 00:35:19;;;;;;;26.85;17.77;;;6.20;65.10;;;;;;4992350;28;20077;-66
2022/02/27 00:37:45;;;;;;;28.40;17.48;;;6.20;65.00;;;;;;4974417;28;20037;-66
2022/02/27 00:40:11;;;;;;;31.65;18.20;;;6.10;65.40;;;;;;4974832;28;20117;-65
2022/02/27 00:42:37;;;;;;;30.33;17.60;;;6.20;65.60;;;;;;4974487;28;20022;-68
2022/02/27 00:45:04;;;;;;;25.15;17.30;;;6.10;65.50;;;;;;4992333;28;20029;-66
2022/02/27 00:47:30;;;;;;;24.23;16.08;;;6.10;65.40;;;;;;4991868;28;20117;-66
2022/02/27 00:49:56;;;;;;;25.45;16.92;;;6.10;65.40;;;;;;4992098;28;20106;-66
2022/02/27 00:52:22;;;;;;;26.98;16.45;;;6.20;65.40;;;;;;4992108;28;20042;-66
2022/02/27 00:54:52;;;;;;;24.73;17.10;;;6.10;65.30;;;;;;4992239;28;20030;-65
2022/02/27 00:57:18;;;;;;;28.83;16.65;;;6.10;65.50;;;;;;4992088;28;20045;-66
2022/02/27 00:59:45;;;;;;;30.10;16.85;;;6.00;65.70;;;;;;4990599;28;20030;-65
2022/02/27 01:02:12;;;;;;;27.42;17.13;;;6.00;65.70;;;;;;4992409;28;20033;-66
2022/02/27 01:04:38;;;;;;;26.55;16.30;;;6.10;65.70;;;;;;4991066;28;20027;-66
2022/02/27 01:07:04;;;;;;;29.60;17.33;;;6.10;65.60;;;;;;4991852;28;20077;-66
2022/02/27 01:09:30;;;;;;;28.38;17.92;;;6.00;65.60;;;;;;4991722;28;20069;-65
2022/02/27 01:11:55;;;;;;;27.20;16.65;;;6.00;65.60;;;;;;4991975;28;20066;-66
2022/02/27 01:14:21;;;;;;;28.38;18.55;;;6.00;65.70;;;;;;4992199;28;20109;-67
2022/02/27 01:16:47;;;;;;;31.30;18.35;;;6.00;65.80;;;;;;4991089;28;20030;-65
2022/02/27 01:19:13;;;;;;;29.48;18.33;;;6.00;65.80;;;;;;4991871;28;20501;-66
2022/02/27 01:21:38;;;;;;;26.23;16.05;;;6.00;65.70;;;;;;4991035;28;20470;-66
2022/02/27 01:24:05;;;;;;;30.58;18.63;;;6.10;65.60;;;;;;4974457;28;20045;-66
2022/02/27 01:26:31;;;;;;;29.92;19.52;;;6.20;66.10;;;;;;4991368;28;20104;-67
2022/02/27 01:28:57;;;;;;;29.48;19.85;;;6.10;65.40;;;;;;4974525;28;20385;-67
2022/02/27 01:31:23;;;;;;;32.20;18.92;;;6.20;65.40;;;;;;4974164;28;20027;-67
2022/02/27 01:33:49;;;;;;;30.85;19.95;;;6.20;65.20;;;;;;4973327;28;20073;-66
2022/02/27 01:36:16;;;;;;;32.40;18.70;;;6.10;65.30;;;;;;4992064;28;20038;-66
2022/02/27 01:38:41;;;;;;;28.33;18.30;;;6.20;65.30;;;;;;4990967;28;20045;-66
2022/02/27 01:41:07;;;;;;;30.42;20.25;;;6.20;65.20;;;;;;4974060;28;20469;-66
2022/02/27 01:43:33;;;;;;;29.33;19.58;;;6.20;65.00;;;;;;4990677;28;20030;-65
2022/02/27 01:45:59;;;;;;;28.77;18.83;;;6.20;65.00;;;;;;4990505;28;20030;-66
2022/02/27 01:48:25;;;;;;;35.90;20.67;;;6.30;65.00;;;;;;4991001;28;20026;-66
2022/02/27 01:50:50;;;;;;;32.92;21.52;;;6.20;64.80;;;;;;4990721;28;20153;-66
2022/02/27 01:53:16;;;;;;;33.33;21.02;;;6.20;64.80;;;;;;4991584;28;20084;-66
2022/02/27 01:55:42;;;;;;;31.42;21.75;;;6.10;64.80;;;;;;4990048;28;20038;-66
2022/02/27 01:58:08;;;;;;;32.17;20.17;;;6.10;65.00;;;;;;4973556;28;20032;-66
2022/02/27 02:00:34;;;;;;;31.42;21.42;;;5.90;65.40;;;;;;4973019;28;20459;-65
2022/02/27 02:02:59;;;;;;;35.15;21.15;;;5.90;65.60;;;;;;4989974;28;20121;-65
2022/02/27 02:05:25;;;;;;;33.22;22.15;;;6.00;65.50;;;;;;4957563;28;20026;-66
2022/02/27 02:07:51;;;;;;;31.83;20.35;;;5.90;65.50;;;;;;4956952;28;20034;-65
2022/02/27 02:10:17;;;;;;;31.90;21.63;;;6.00;65.50;;;;;;4990632;28;20031;-65
2022/02/27 02:12:43;;;;;;;36.83;22.33;;;6.00;65.20;;;;;;4976742;28;20033;-65
2022/02/27 02:15:10;;;;;;;35.83;22.00;;;6.10;65.10;;;;;;4994123;28;20389;-66
2022/02/27 02:17:36;;;;;;;36.42;22.33;;;6.10;65.00;;;;;;4994231;28;20105;-66
2022/02/27 02:20:02;;;;;;;32.80;21.85;;;6.00;65.10;;;;;;4994326;28;20529;-66
2022/02/27 02:22:28;;;;;;;33.13;21.50;;;6.10;65.00;;;;;;4993772;28;20130;-65
2022/02/27 02:24:54;;;;;;;33.63;22.80;;;6.10;64.80;;;;;;4993569;28;20497;-66
2022/02/27 02:27:20;;;;;;;33.80;22.35;;;6.10;64.90;;;;;;4994292;28;20027;-66
2022/02/27 02:29:46;;;;;;;35.97;22.15;;;6.00;64.90;;;;;;4975612;28;20197;-65
2022/02/27 02:32:12;;;;;;;40.85;23.65;;;6.10;64.90;;;;;;4994313;28;20409;-66
2022/02/27 02:34:38;;;;;;;36.58;23.90;;;6.10;64.60;;;;;;4993275;28;20153;-66
2022/02/27 02:37:04;;;;;;;37.13;24.05;;;6.10;64.60;;;;;;4994219;28;20537;-67
2022/02/27 02:39:30;;;;;;;35.10;22.90;;;6.10;64.60;;;;;;4993461;28;20551;-65
2022/02/27 02:41:58;;;;;;;40.83;24.38;;;6.20;64.60;;;;;;4975802;28;20030;-66
2022/02/27 02:44:24;;;;;;;34.70;23.35;;;6.10;64.60;;;;;;4993407;28;20045;-66
2022/02/27 02:46:49;;;;;;;34.75;23.85;;;6.00;64.80;;;;;;4992940;28;20461;-67
2022/02/27 02:49:15;;;;;;;38.47;24.45;;;6.00;64.80;;;;;;4993413;28;20064;-67
2022/02/27 02:51:42;;;;;;;36.38;23.40;;;6.10;64.80;;;;;;4975363;28;20070;-65
2022/02/27 02:54:09;;;;;;;39.75;24.77;;;6.00;65.40;;;;;;4993879;28;20045;-66
2022/02/27 02:56:35;;;;;;;35.67;23.77;;;6.10;64.80;;;;;;4976069;28;20037;-65
2022/02/27 02:59:02;;;;;;;40.90;24.45;;;6.00;64.70;;;;;;4993706;28;20105;-66
2022/02/27 03:01:28;;;;;;;38.88;25.67;;;5.90;65.00;;;;;;4993506;28;20037;-66
2022/02/27 03:03:55;;;;;;;38.50;26.33;;;6.00;65.00;;;;;;4992916;28;20026;-65
2022/02/27 03:06:21;;;;;;;39.03;25.83;;;6.00;65.00;;;;;;4993726;28;20026;-66
2022/02/27 03:08:48;;;;;;;42.17;26.63;;;6.00;64.90;;;;;;4975754;28;20033;-65
2022/02/27 03:11:16;;;;;;;39.47;25.40;;;6.00;64.90;;;;;;4993498;28;20069;-66
2022/02/27 03:13:42;;;;;;;39.83;25.80;;;5.90;64.80;;;;;;4993275;28;20030;-65
2022/02/27 03:16:07;;;;;;;43.85;25.55;;;5.90;65.00;;;;;;4960177;28;20057;-66
2022/02/27 03:18:34;;;;;;;39.58;25.65;;;5.80;65.10;;;;;;4992823;28;20041;-65
2022/02/27 03:20:59;;;;;;;39.25;27.25;;;5.90;65.10;;;;;;4993675;28;20073;-67
2022/02/27 03:23:28;;;;;;;39.03;25.98;;;5.80;65.00;;;;;;4991369;28;20492;-65
2022/02/27 03:25:54;;;;;;;38.50;26.38;;;5.80;65.10;;;;;;4993000;28;20046;-65
2022/02/27 03:28:20;;;;;;;44.85;27.08;;;5.80;65.30;;;;;;4993137;28;20421;-65
2022/02/27 03:30:45;;;;;;;39.88;25.27;;;5.80;65.40;;;;;;4992677;28;20380;-65
2022/02/27 03:33:11;;;;;;;43.65;27.15;;;5.80;65.10;;;;;;4992702;28;20109;-65
2022/02/27 03:35:38;;;;;;;41.78;26.90;;;5.80;65.40;;;;;;4975207;28;20109;-64
2022/02/27 03:38:04;;;;;;;44.55;28.35;;;5.80;65.20;;;;;;4975766;28;20027;-66
2022/02/27 03:40:30;;;;;;;43.53;26.65;;;5.80;65.30;;;;;;4993165;28;20066;-66
2022/02/27 03:42:56;;;;;;;44.80;27.60;;;5.70;65.30;;;;;;4975152;28;20059;-65
2022/02/27 03:45:22;;;;;;;43.03;27.42;;;5.70;65.40;;;;;;4975549;28;20489;-66
2022/02/27 03:47:48;;;;;;;41.67;26.10;;;5.70;65.40;;;;;;4992526;28;20046;-65
2022/02/27 03:50:16;;;;;;;43.72;27.45;;;5.60;65.50;;;;;;4992450;28;20055;-65
2022/02/27 03:52:42;;;;;;;40.65;27.27;;;5.60;65.70;;;;;;4975223;28;20354;-65
2022/02/27 03:55:11;;;;;;;47.00;29.05;;;5.60;65.80;;;;;;4993049;28;20023;-65
2022/02/27 03:57:37;;;;;;;43.30;27.52;;;5.60;65.80;;;;;;4992299;28;20125;-66
2022/02/27 04:00:08;;;;;;;46.60;28.27;;;5.50;66.00;;;;;;4992605;28;20038;-66
2022/02/27 04:02:34;;;;;;;50.70;29.00;;;5.60;65.90;;;;;;4992363;28;20100;-66
2022/02/27 04:05:00;;;;;;;45.70;28.13;;;5.60;65.70;;;;;;4974252;28;20477;-65
2022/02/27 04:07:25;;;;;;;44.67;29.88;;;5.50;65.80;;;;;;4992864;28;20125;-65
2022/02/27 04:09:51;;;;;;;46.47;28.85;;;5.50;65.90;;;;;;4991648;28;20030;-66
2022/02/27 04:12:16;;;;;;;44.03;27.92;;;5.50;66.00;;;;;;4992897;28;20030;-66
2022/02/27 04:14:42;;;;;;;44.97;29.00;;;5.50;66.00;;;;;;4992062;28;20428;-65
2022/02/27 04:17:08;;;;;;;50.33;29.40;;;5.50;66.10;;;;;;4975258;28;20496;-66
2022/02/27 04:19:34;;;;;;;48.50;29.30;;;5.50;66.00;;;;;;4974968;28;20037;-66
2022/02/27 04:21:59;;;;;;;49.08;30.00;;;5.50;66.00;;;;;;4991583;28;20092;-65
2022/02/27 04:24:25;;;;;;;49.70;30.17;;;5.60;66.10;;;;;;4992756;28;20034;-65
2022/02/27 04:26:51;;;;;;;52.03;30.00;;;5.60;66.10;;;;;;4974536;28;20026;-65
2022/02/27 04:29:18;;;;;;;55.45;30.42;;;5.60;65.90;;;;;;4992278;28;20030;-65
2022/02/27 04:31:44;;;;;;;52.08;30.10;;;5.60;65.90;;;;;;4991539;28;20030;-65
2022/02/27 04:34:09;;;;;;;46.92;30.13;;;5.60;66.00;;;;;;4992319;28;20050;-66
2022/02/27 04:36:35;;;;;;;53.20;31.13;;;5.50;66.30;;;;;;4992371;28;20424;-65
2022/02/27 04:39:01;;;;;;;53.50;32.00;;;5.40;66.60;;;;;;4991438;28;20029;-65
2022/02/27 04:41:26;;;;;;;53.50;32.33;;;5.40;66.70;;;;;;4974493;28;20026;-66
2022/02/27 04:43:52;;;;;;;51.17;31.52;;;5.50;66.80;;;;;;4991542;28;20023;-66
2022/02/27 04:46:18;;;;;;;53.67;32.13;;;5.50;66.50;;;;;;4992031;28;20425;-65
2022/02/27 04:48:44;;;;;;;53.53;32.03;;;5.50;66.40;;;;;;4991636;28;20513;-67
2022/02/27 04:51:09;;;;;;;51.47;31.27;;;5.50;66.40;;;;;;4991977;28;20045;-66
2022/02/27 04:53:35;;;;;;;53.60;32.08;;;5.60;66.40;;;;;;4990984;28;20026;-65
2022/02/27 04:56:02;;;;;;;54.15;33.28;;;5.50;66.70;;;;;;4991470;28;20026;-66
2022/02/27 04:58:28;;;;;;;53.22;32.92;;;5.40;66.80;;;;;;4974737;28;20030;-65
2022/02/27 05:00:53;;;;;;;52.78;32.33;;;5.30;67.00;;;;;;4991361;28;20469;-66
2022/02/27 05:03:19;;;;;;;57.15;33.90;;;5.30;67.30;;;;;;4992453;28;20022;-66
2022/02/27 05:05:45;;;;;;;53.03;33.47;;;5.30;67.30;;;;;;4991480;28;20034;-65
2022/02/27 05:08:11;;;;;;;55.15;35.30;;;5.30;67.20;;;;;;4991891;28;20030;-66
2022/02/27 05:10:37;;;;;;;53.78;34.85;;;5.40;67.30;;;;;;4991524;28;20339;-66
2022/02/27 05:13:03;;;;;;;54.75;34.55;;;5.30;67.30;;;;;;4991154;28;20041;-66
2022/02/27 05:15:29;;;;;;;56.05;34.42;;;5.30;67.30;;;;;;4991892;28;20470;-65
2022/02/27 05:17:55;;;;;;;53.55;33.92;;;5.40;67.30;;;;;;4991323;28;20473;-65
2022/02/27 05:20:22;;;;;;;57.03;35.15;;;5.30;67.20;;;;;;4974388;28;20134;-66
2022/02/27 05:22:49;;;;;;;54.88;34.65;;;5.40;67.20;;;;;;4974240;28;20027;-66
2022/02/27 05:25:18;;;;;;;58.97;34.58;;;5.40;67.10;;;;;;4991979;28;20041;-65
2022/02/27 05:27:45;;;;;;;55.83;34.03;;;5.40;67.00;;;;;;4991001;28;20473;-66
2022/02/27 05:30:12;;;;;;;57.20;34.78;;;5.40;67.10;;;;;;4973722;28;20039;-66
2022/02/27 05:32:38;;;;;;;56.55;35.08;;;5.40;67.20;;;;;;4991384;28;20050;-65
2022/02/27 05:35:05;;;;;;;56.42;34.47;;;5.30;67.30;;;;;;4991236;28;20033;-65
2022/02/27 05:37:30;;;;;;;61.03;36.90;;;5.20;67.60;;;;;;4992084;28;20030;-66
2022/02/27 05:39:56;;;;;;;61.05;36.00;;;5.30;67.50;;;;;;4991287;28;20093;-66
2022/02/27 05:42:22;;;;;;;57.08;35.90;;;5.30;67.30;;;;;;4991717;28;20027;-66
2022/02/27 05:44:48;;;;;;;55.50;33.63;;;5.30;67.40;;;;;;4991174;28;20101;-64
2022/02/27 05:47:13;;;;;;;61.08;36.22;;;5.20;67.60;;;;;;4994576;28;20104;-65
2022/02/27 05:49:39;;;;;;;58.53;35.97;;;5.30;67.40;;;;;;4995433;28;20430;-66
2022/02/27 05:52:05;;;;;;;59.63;35.15;;;5.30;67.30;;;;;;4994732;28;20481;-66
2022/02/27 05:54:31;;;;;;;55.95;34.15;;;5.20;67.30;;;;;;4995193;28;20034;-66
2022/02/27 05:56:57;;;;;;;60.47;36.40;;;5.20;67.50;;;;;;4994555;28;20026;-65
2022/02/27 05:59:23;;;;;;;58.47;35.50;;;5.20;67.40;;;;;;4977593;28;20023;-65
2022/02/27 06:01:49;;;;;;;57.75;35.95;;;5.30;67.30;;;;;;4976846;28;20068;-65
2022/02/27 06:04:15;;;;;;;62.25;35.95;;;5.30;67.10;;;;;;4995349;28;20031;-66
2022/02/27 06:06:42;;;;;;;56.95;34.55;;;5.30;67.00;;;;;;4994867;28;20026;-65
2022/02/27 06:09:08;;;;;;;59.92;35.65;;;5.20;67.00;;;;;;4994596;28;20034;-64
2022/02/27 06:11:33;;;;;;;59.72;35.30;;;5.30;67.10;;;;;;4995091;28;20339;-65
2022/02/27 06:13:59;;;;;;;59.35;36.30;;;5.30;67.00;;;;;;4994605;28;20022;-64
2022/02/27 06:16:25;;;;;;;58.40;36.53;;;5.30;66.90;;;;;;4994909;28;20105;-65
2022/02/27 06:18:51;;;;;;;60.33;35.85;;;5.30;66.90;;;;;;4994427;28;20056;-64
2022/02/27 06:21:16;;;;;;;58.67;35.97;;;5.30;67.00;;;;;;4977546;28;20034;-65
2022/02/27 06:24:01;;;;;;;62.80;36.80;;;5.30;67.00;;;;;;4994070;28;20030;-64
2022/02/27 06:26:30;;;;;;;57.35;34.85;;;5.40;66.80;;;;;;4977313;28;20030;-68
2022/02/27 06:28:55;;;;;;;57.60;34.97;;;5.30;66.60;;;;;;4994573;28;20049;-65
2022/02/27 06:31:21;;;;;;;57.80;34.88;;;5.30;66.70;;;;;;4976889;28;20030;-66
2022/02/27 06:33:47;;;;;;;56.08;33.88;;;5.30;66.80;;;;;;4994380;28;20058;-65
2022/02/27 06:36:12;;;;;;;62.35;36.60;;;5.40;66.70;;;;;;4993875;28;20023;-65
2022/02/27 06:38:38;;;;;;;58.22;33.47;;;5.40;66.40;;;;;;4977422;28;20037;-65
2022/02/27 06:41:04;;;;;;;60.35;35.03;;;5.40;66.40;;;;;;4976575;28;20393;-65
2022/02/27 06:43:33;;;;;;;62.58;35.22;;;5.40;66.40;;;;;;4976650;28;20022;-67
2022/02/27 06:46:02;;;;;;;57.22;35.78;;;5.50;66.30;;;;;;4976844;28;20156;-65
2022/02/27 06:48:28;;;;;;;57.55;35.08;;;5.60;66.10;;;;;;4977218;28;20053;-68
2022/02/27 06:50:55;;;;;;;58.92;35.08;;;5.70;65.70;;;;;;4976646;28;20034;-67
2022/02/27 06:53:20;;;;;;;55.03;35.03;;;5.70;65.30;;;;;;4994397;28;20433;-65
2022/02/27 06:55:46;;;;;;;56.80;36.78;;;5.70;65.40;;;;;;4974311;28;20026;-65
2022/02/27 06:58:12;;;;;;;59.75;36.08;;;5.70;65.10;;;;;;4993032;28;20470;-66
2022/02/27 07:00:38;;;;;;;61.70;35.75;;;5.80;65.30;;;;;;4993199;28;20038;-65
2022/02/27 07:03:03;;;;;;;62.08;37.35;;;5.80;65.00;;;;;;4992880;28;20027;-65
2022/02/27 07:05:29;;;;;;;56.85;36.90;;;6.00;64.90;;;;;;4975490;28;20026;-66
2022/02/27 07:07:55;;;;;;;59.55;35.85;;;6.10;64.30;;;;;;4974852;28;20029;-65
2022/02/27 07:10:20;;;;;;;55.38;35.72;;;6.10;64.20;;;;;;4988932;28;20041;-69
2022/02/27 07:12:47;;;;;;;59.55;36.22;;;6.20;63.80;;;;;;4993252;28;20026;-67
2022/02/27 07:15:13;;;;;;;62.20;36.75;;;6.20;63.30;;;;;;4990184;28;20030;-67
2022/02/27 07:17:38;;;;;;;61.92;36.30;;;6.10;63.50;;;;;;4992949;28;20030;-67
2022/02/27 07:20:05;;;;;;;56.05;36.35;;;6.10;63.60;;;;;;4992760;28;20037;-68
2022/02/27 07:22:34;;;;;;;57.90;34.72;;;6.30;63.40;;;;;;4992921;28;20026;-68
2022/02/27 07:24:59;;;;;;;56.53;34.42;;;6.30;63.30;;;;;;4991451;28;20023;-69
2022/02/27 07:27:25;;;;;;;57.72;34.03;;;6.40;62.80;;;;;;4957992;28;20093;-66
2022/02/27 07:29:51;;;;;;;58.03;35.95;;;6.60;62.40;;;;;;4991207;28;20191;-65
2022/02/27 07:32:16;;;;;;;59.88;37.65;;;7.00;63.50;;;;;;4974362;28;20046;-66
2022/02/27 07:34:43;;;;;;;47.22;33.38;;;9.50;61.30;;;;;;4992214;28;20267;-69
2022/02/27 07:37:28;;;;;;;50.10;34.10;;;12.40;53.80;;;;;;4974678;28;20034;-66
2022/02/27 07:39:53;;;;;;;50.25;35.42;;;14.90;47.10;;;;;;4974840;28;20022;-65
2022/02/27 07:42:19;;;;;;;48.08;34.90;;;16.60;42.50;;;;;;4992654;28;20094;-68
2022/02/27 07:44:46;;;;;;;46.75;34.72;;;17.80;39.50;;;;;;4992494;28;20129;-66
2022/02/27 07:47:12;;;;;;;48.30;36.00;;;19.00;37.30;;;;;;4975280;28;20033;-68
2022/02/27 07:49:37;;;;;;;47.70;37.53;;;19.80;34.60;;;;;;4975258;28;20030;-67
2022/02/27 07:52:04;;;;;;;55.58;35.47;;;20.70;33.20;;;;;;4991303;28;20450;-67
2022/02/27 07:54:29;;;;;;;46.42;33.67;;;21.40;32.90;;;;;;4992174;28;20026;-67
2022/02/27 07:56:55;;;;;;;43.78;34.50;;;22.40;32.20;;;;;;4991530;28;20484;-67
2022/02/27 07:59:21;;;;;;;40.45;33.13;;;22.90;29.20;;;;;;4992335;28;20038;-69
2022/02/27 08:01:47;;;;;;;42.65;35.20;;;22.30;29.50;;;;;;4991721;28;20045;-71
2022/02/27 08:04:13;;;;;;;42.45;34.55;;;22.30;30.00;;;;;;4992337;28;20113;-68
2022/02/27 08:06:39;;;;;;;38.28;32.35;;;22.60;28.60;;;;;;4992937;28;20076;-71
2022/02/27 08:09:05;;;;;;;43.67;33.00;;;22.20;29.40;;;;;;4990896;28;20030;-69
2022/02/27 08:11:31;;;;;;;41.00;33.45;;;22.70;28.80;;;;;;4991741;28;20038;-69
2022/02/27 08:13:57;;;;;;;39.42;30.52;;;22.70;28.60;;;;;;4974212;28;20030;-69
2022/02/27 08:16:24;;;;;;;40.67;32.45;;;22.80;28.60;;;;;;4992556;28;20022;-69
2022/02/27 08:18:50;;;;;;;38.83;31.17;;;23.10;28.50;;;;;;4991628;28;20026;-67
2022/02/27 08:21:15;;;;;;;39.78;32.33;;;23.60;28.00;;;;;;4975415;28;20121;-67
2022/02/27 08:23:41;;;;;;;40.13;32.05;;;23.60;27.70;;;;;;4974893;28;20033;-67
2022/02/27 08:26:07;;;;;;;43.22;32.22;;;23.40;27.30;;;;;;4992111;28;20275;-66
2022/02/27 08:28:33;;;;;;;43.47;33.75;;;22.50;28.10;;;;;;4992380;28;20026;-65
2022/02/27 08:30:59;;;;;;;39.60;31.35;;;20.80;29.00;;;;;;4990638;28;20042;-66
2022/02/27 08:33:26;;;;;;;40.80;31.17;;;19.10;30.50;;;;;;4991970;28;20054;-67
2022/02/27 08:35:52;;;;;;;41.45;33.80;;;17.60;32.50;;;;;;4991924;28;20034;-67
2022/02/27 08:38:20;;;;;;;41.50;34.03;;;16.30;34.50;;;;;;4974590;28;20073;-67
2022/02/27 08:40:46;;;;;;;45.50;33.35;;;15.20;35.90;;;;;;4992673;28;20092;-66
2022/02/27 08:43:12;;;;;;;44.75;33.83;;;14.60;37.30;;;;;;4973954;28;20125;-67
2022/02/27 08:45:38;;;;;;;47.30;33.90;;;13.80;38.30;;;;;;4992944;28;20030;-67
2022/02/27 08:48:05;;;;;;;48.17;34.65;;;13.00;39.90;;;;;;4990994;28;20022;-69
2022/02/27 08:50:31;;;;;;;47.25;34.90;;;12.60;41.10;;;;;;4958639;28;20501;-67
2022/02/27 08:52:56;;;;;;;49.30;33.60;;;12.10;42.10;;;;;;4958190;28;20030;-67
2022/02/27 08:55:22;;;;;;;51.83;35.28;;;11.70;43.30;;;;;;4992364;28;20030;-68
2022/02/27 08:57:48;;;;;;;49.78;34.55;;;11.40;44.00;;;;;;4992324;28;20022;-67
2022/02/27 09:00:16;;;;;;;51.78;33.88;;;11.30;44.40;;;;;;4991288;28;20581;-65
2022/02/27 09:02:43;;;;;;;48.92;34.17;;;11.10;45.30;;;;;;4992256;28;20084;-66
2022/02/27 09:05:09;;;;;;;53.72;35.50;;;10.90;45.50;;;;;;4991395;28;20026;-65
2022/02/27 09:07:35;;;;;;;53.97;35.67;;;10.80;45.70;;;;;;4974790;28;20058;-65
2022/02/27 09:10:02;;;;;;;52.45;36.53;;;10.60;46.30;;;;;;4974375;28;20114;-66
2022/02/27 09:12:28;;;;;;;51.72;36.55;;;10.50;46.90;;;;;;4992024;28;20077;-65
2022/02/27 09:14:54;;;;;;;51.75;35.28;;;10.40;47.20;;;;;;4991725;28;20026;-66
2022/02/27 09:17:20;;;;;;;49.30;33.25;;;10.30;47.50;;;;;;4991723;28;20448;-65
2022/02/27 09:19:46;;;;;;;57.63;38.90;;;10.30;47.70;;;;;;4992076;28;20027;-65
2022/02/27 09:22:12;;;;;;;54.97;34.58;;;10.20;48.10;;;;;;4977532;28;20285;-66
2022/02/27 09:24:38;;;;;;;53.17;35.20;;;10.10;48.40;;;;;;4996419;28;20026;-66
2022/02/27 09:27:05;;;;;;;55.38;35.08;;;10.00;48.50;;;;;;4978452;28;20026;-65
2022/02/27 09:29:31;;;;;;;52.50;34.95;;;9.80;49.30;;;;;;4978488;28;20030;-66
2022/02/27 09:31:57;;;;;;;52.63;34.67;;;9.70;49.30;;;;;;4994082;28;20404;-65
2022/02/27 09:34:23;;;;;;;48.80;33.63;;;9.90;49.10;;;;;;4977777;28;20041;-66
2022/02/27 09:36:49;;;;;;;56.38;36.05;;;9.90;49.30;;;;;;4995922;28;20030;-66
2022/02/27 09:39:15;;;;;;;53.13;35.63;;;9.60;50.10;;;;;;4977668;28;20081;-67
2022/02/27 09:41:41;;;;;;;51.63;34.05;;;9.60;50.40;;;;;;4995917;28;20398;-65
2022/02/27 09:44:08;;;;;;;51.72;34.00;;;9.60;50.50;;;;;;4977693;28;20022;-66
2022/02/27 09:46:35;;;;;;;54.83;35.47;;;9.40;50.70;;;;;;4977751;28;20224;-66
2022/02/27 09:49:02;;;;;;;53.03;35.60;;;9.40;51.00;;;;;;4994114;28;20034;-65
2022/02/27 09:51:28;;;;;;;51.83;35.28;;;9.60;50.60;;;;;;4994940;28;20054;-67
2022/02/27 09:53:54;;;;;;;53.72;33.88;;;9.60;50.60;;;;;;4977249;28;20461;-65
2022/02/27 09:56:20;;;;;;;53.22;34.75;;;9.60;50.70;;;;;;4994474;28;20105;-66
2022/02/27 09:59:05;;;;;;;57.47;36.22;;;9.70;50.50;;;;;;4977338;28;20026;-66
2022/02/27 10:01:31;;;;;;;53.90;34.33;;;9.90;50.30;;;;;;4977659;28;20034;-66
2022/02/27 10:03:57;;;;;;;48.33;33.53;;;10.00;49.90;;;;;;4977442;28;20097;-66
2022/02/27 10:06:23;;;;;;;55.40;35.28;;;10.00;49.60;;;;;;4994850;28;20022;-65
2022/02/27 10:08:55;;;;;;;54.75;35.15;;;10.10;49.50;;;;;;4994823;28;20037;-66
2022/02/27 10:11:21;;;;;;;53.53;35.58;;;10.30;49.60;;;;;;4976673;28;20026;-64
2022/02/27 10:13:58;;;;;;;52.20;34.05;;;10.30;49.30;;;;;;4977386;28;20034;-63
2022/02/27 10:16:26;;;;;;;46.10;31.55;;;10.20;48.90;;;;;;4988341;28;20687;-67
2022/02/27 10:18:54;;;;;;;47.65;31.63;;;10.10;49.00;;;;;;4994427;28;20023;-63
2022/02/27 10:21:20;;;;;;;48.63;31.92;;;10.20;49.00;;;;;;4993340;28;20606;-61
2022/02/27 10:23:55;;;;;;;43.97;31.95;;;10.30;49.10;;;;;;4994508;28;20034;-63
2022/02/27 10:26:23;;;;;;;46.05;31.25;;;10.40;48.80;;;;;;4976247;28;20053;-64
2022/02/27 10:29:08;;;;;;;48.78;31.60;;;10.30;48.60;;;;;;4993900;28;20041;-63
2022/02/27 10:31:39;;;;;;;46.85;31.48;;;10.00;49.00;;;;;;4994110;28;20450;-63
2022/02/27 10:34:21;;;;;;;44.92;29.98;;;9.80;49.40;;;;;;4993375;28;20054;-63
2022/02/27 10:37:09;;;;;;;51.10;32.00;;;9.90;49.40;;;;;;4977269;28;20064;-64
2022/02/27 10:39:39;;;;;;;47.85;30.13;;;10.00;49.10;;;;;;4994663;28;20031;-64
2022/02/27 10:42:12;;;;;;;47.80;31.30;;;10.10;49.20;;;;;;4993469;28;20038;-63
2022/02/27 10:44:52;;;;;;;46.03;30.92;;;10.30;48.60;;;;;;4994315;28;20034;-62
2022/02/27 10:47:23;;;;;;;47.58;31.77;;;10.30;48.30;;;;;;4992913;28;20061;-63
2022/02/27 10:49:51;;;;;;;44.30;29.55;;;10.30;48.10;;;;;;4976706;28;20073;-63
2022/02/27 10:52:19;;;;;;;43.60;29.00;;;10.30;47.90;;;;;;4993383;28;20038;-62
2022/02/27 10:54:51;;;;;;;45.20;29.60;;;10.40;47.80;;;;;;4976445;28;20081;-63
2022/02/27 10:57:40;;;;;;;43.47;27.95;;;10.50;47.50;;;;;;4975247;28;20045;-63
2022/02/27 11:00:20;;;;;;;44.47;27.83;;;10.70;46.80;;;;;;4976049;28;20030;-64
2022/02/27 11:02:54;;;;;;;39.75;25.48;;;10.80;47.20;;;;;;4976636;28;20456;-63
2022/02/27 11:05:23;;;;;;;39.38;27.13;;;11.00;47.00;;;;;;4972827;28;20056;-64
2022/02/27 11:07:55;;;;;;;39.85;27.52;;;11.10;46.50;;;;;;4975626;28;20030;-65
2022/02/27 11:10:23;;;;;;;40.55;28.27;;;11.10;45.60;;;;;;4975021;28;20093;-63
2022/02/27 11:12:49;;;;;;;39.30;26.80;;;11.10;45.90;;;;;;4993330;28;20073;-66
2022/02/27 11:15:18;;;;;;;37.63;25.73;;;11.10;45.00;;;;;;4991626;28;20426;-65
2022/02/27 11:17:44;;;;;;;38.33;25.00;;;11.20;44.50;;;;;;4975849;28;20076;-63
2022/02/27 11:20:12;;;;;;;35.65;24.05;;;11.30;44.60;;;;;;4993082;28;20026;-65
2022/02/27 11:22:39;;;;;;;35.55;24.10;;;11.70;43.20;;;;;;4959400;28;20026;-68
2022/02/27 11:25:08;;;;;;;34.40;23.75;;;11.90;42.80;;;;;;4992859;28;20485;-65
2022/02/27 11:27:41;;;;;;;34.22;22.92;;;11.90;41.70;;;;;;4975640;28;20390;-65
2022/02/27 11:30:09;;;;;;;33.05;22.35;;;11.60;41.50;;;;;;4974376;28;20030;-66
2022/02/27 11:32:45;;;;;;;41.20;26.15;;;11.50;42.20;;;;;;4991167;28;20058;-65
2022/02/27 11:35:39;;;;;;;54.72;32.22;;;11.60;42.00;;;;;;4975358;28;20033;-65
2022/02/27 11:38:11;;;;;;;34.90;24.73;;;11.60;42.10;;;;;;4992760;28;20144;-64
2022/02/27 11:40:56;;;;;;;32.83;21.92;;;11.60;42.00;;;;;;4993218;28;20031;-65
2022/02/27 11:43:53;;;;;;;50.95;29.08;;;11.60;42.30;;;;;;4991315;28;20030;-65
2022/02/27 11:46:38;;;;;;;31.92;20.08;;;11.80;41.90;;;;;;4991778;28;20057;-65
2022/02/27 11:49:16;;;;;;;37.65;23.77;;;11.80;40.90;;;;;;4974708;28;20027;-64
2022/02/27 11:51:44;;;;;;;32.40;21.45;;;11.80;40.90;;;;;;4974443;28;20128;-66
2022/02/27 11:54:12;;;;;;;26.50;19.25;;;11.90;40.70;;;;;;4992400;28;20438;-64
2022/02/27 11:56:40;;;;;;;31.30;20.27;;;12.00;40.50;;;;;;4975149;28;20027;-66
2022/02/27 11:59:09;;;;;;;28.08;19.90;;;12.00;39.80;;;;;;4992040;28;20030;-64
2022/02/27 12:01:57;;;;;;;35.58;22.98;;;12.00;40.30;;;;;;4974549;28;20038;-65
2022/02/27 12:04:24;;;;;;;29.80;20.30;;;11.90;39.70;;;;;;4958398;28;20031;-64
2022/02/27 12:07:02;;;;;;;29.77;20.95;;;11.90;39.80;;;;;;4975376;28;20030;-66
2022/02/27 12:09:51;;;;;;;30.10;20.55;;;11.90;39.30;;;;;;4974212;28;20022;-67
2022/02/27 12:12:40;;;;;;;26.67;18.15;;;11.70;38.40;;;;;;4973279;28;20045;-65
2022/02/27 12:15:18;;;;;;;25.80;17.08;;;11.70;38.30;;;;;;4991104;28;20030;-64
2022/02/27 12:17:55;;;;;;;23.42;16.85;;;12.00;38.10;;;;;;4992432;28;20029;-65
2022/02/27 12:20:39;;;;;;;25.77;18.45;;;12.30;37.70;;;;;;4991274;28;20037;-63
2022/02/27 12:23:06;;;;;;;;;;;12.10;38.00;;;;;;4992301;28;20089;-63
2022/02/27 12:25:42;;;;;;;28.98;18.98;;;12.10;38.00;;;;;;4973198;28;20000;-63
2022/02/27 12:28:08;;;;;;;29.45;19.33;;;12.00;37.70;;;;;;4991997;28;20026;-64
2022/02/27 12:30:34;;;;;;;28.65;18.77;;;12.10;38.40;;;;;;4991615;28;20284;-66
2022/02/27 12:33:08;;;;;;;25.88;18.27;;;12.30;38.10;;;;;;4991528;28;20058;-65
2022/02/27 12:35:38;;;;;;;25.27;17.90;;;12.50;37.70;;;;;;4992354;28;20027;-65
2022/02/27 12:38:13;;;;;;;25.83;17.35;;;12.60;37.30;;;;;;4974945;28;20083;-65